Station Historical Data
Daily Summary for March 4, 2012 Units:  English    Metric   Both
« Previous Day
Next Day »
Daily Weekly Monthly Yearly Custom
  High: Low: Average:
Temperature: 54.5 °F 30.7 °F 44.2 °F
Dew Point: 29.4 °F 20.7 °F 24.6 °F
Humidity: 79% 29% 48%
Wind Speed: 19.0mph 0.0mph 4.9mph
Wind Gust: 24.0mph - -
Wind- - WSW
Pressure: 30.04 in 29.92 in -
Precipitation: 0.00 in    
Historical Graphs
 
 
Tabular Data for March 4, 2012
Time Temperature Dew Point Pressure Wind Wind Speed Wind Gust Humidity Rainfall Rate (Hourly) Conditions
00:00 40.7 °F 22.1 °F 29.93 in WNW 2.0 mph 3.0 mph 47% 0.00 in
00:01 40.7 °F 21.5 °F 29.93 in WNW 2.0 mph 3.0 mph 46% 0.00 in
00:06 40.6 °F 22.0 °F 29.92 in WNW 1.0 mph 3.0 mph 47% 0.00 in
00:07 40.5 °F 21.9 °F 29.92 in WNW 2.0 mph 2.0 mph 47% 0.00 in
00:12 40.3 °F 21.7 °F 29.92 in WNW 4.0 mph 4.0 mph 47% 0.00 in
00:17 40.3 °F 21.7 °F 29.92 in WNW 4.0 mph 4.0 mph 47% 0.00 in
00:22 40.2 °F 21.6 °F 29.92 in WNW 2.0 mph 4.0 mph 47% 0.00 in
00:27 40.1 °F 21.5 °F 29.92 in West 2.0 mph 4.0 mph 47% 0.00 in
00:32 39.8 °F 21.7 °F 29.92 in WNW 3.0 mph 4.0 mph 48% 0.00 in
00:37 39.5 °F 21.5 °F 29.92 in WNW 3.0 mph 3.0 mph 48% 0.00 in
00:42 39.3 °F 21.3 °F 29.93 in WNW 2.0 mph 3.0 mph 48% 0.00 in
00:47 39.3 °F 21.8 °F 29.93 in West 3.0 mph 4.0 mph 49% 0.00 in
00:52 39.2 °F 21.7 °F 29.93 in West 2.0 mph 4.0 mph 49% 0.00 in
00:57 39.1 °F 21.6 °F 29.93 in NW 4.0 mph 6.0 mph 49% 0.00 in
01:02 38.9 °F 21.4 °F 29.93 in WNW 3.0 mph 5.0 mph 49% 0.00 in
01:07 38.8 °F 21.3 °F 29.93 in WNW 4.0 mph 5.0 mph 49% 0.00 in
01:12 38.8 °F 21.3 °F 29.93 in WNW 2.0 mph 5.0 mph 49% 0.00 in
01:17 38.6 °F 21.1 °F 29.93 in WNW 6.0 mph 6.0 mph 49% 0.00 in
01:22 38.8 °F 21.3 °F 29.93 in WNW 6.0 mph 6.0 mph 49% 0.00 in
01:28 38.9 °F 21.4 °F 29.93 in NW 3.0 mph 6.0 mph 49% 0.00 in
01:33 38.9 °F 20.9 °F 29.93 in WNW 4.0 mph 7.0 mph 48% 0.00 in
01:38 38.6 °F 21.1 °F 29.94 in WNW 4.0 mph 5.0 mph 49% 0.00 in
01:43 38.5 °F 21.0 °F 29.94 in WNW 3.0 mph 6.0 mph 49% 0.00 in
01:48 38.4 °F 20.9 °F 29.94 in WNW 5.0 mph 6.0 mph 49% 0.00 in
01:53 38.3 °F 20.8 °F 29.94 in West 4.0 mph 6.0 mph 49% 0.00 in
01:58 38.2 °F 21.2 °F 29.94 in WNW 3.0 mph 5.0 mph 50% 0.00 in
02:03 38.1 °F 21.1 °F 29.94 in WNW 4.0 mph 6.0 mph 50% 0.00 in
02:08 38.0 °F 21.0 °F 29.94 in WNW 4.0 mph 6.0 mph 50% 0.00 in
02:13 37.8 °F 20.8 °F 29.94 in WNW 3.0 mph 4.0 mph 50% 0.00 in
02:18 37.6 °F 20.7 °F 29.94 in WNW 3.0 mph 4.0 mph 50% 0.00 in
02:23 37.5 °F 21.0 °F 29.94 in WNW 5.0 mph 6.0 mph 51% 0.00 in
02:28 37.5 °F 21.0 °F 29.94 in WNW 4.0 mph 6.0 mph 51% 0.00 in
02:33 37.5 °F 21.0 °F 29.94 in WNW 3.0 mph 5.0 mph 51% 0.00 in
02:38 37.5 °F 21.0 °F 29.94 in WNW 5.0 mph 5.0 mph 51% 0.00 in
02:43 37.4 °F 20.9 °F 29.94 in WNW 3.0 mph 5.0 mph 51% 0.00 in
02:48 37.1 °F 21.1 °F 29.94 in NW 3.0 mph 3.0 mph 52% 0.00 in
02:53 36.9 °F 20.9 °F 29.94 in NW 3.0 mph 3.0 mph 52% 0.00 in
02:58 36.9 °F 20.9 °F 29.94 in NW 1.0 mph 2.0 mph 52% 0.00 in
03:03 37.0 °F 21.0 °F 29.94 in NW 1.0 mph 2.0 mph 52% 0.00 in
03:08 37.0 °F 21.0 °F 29.94 in NW 2.0 mph 2.0 mph 52% 0.00 in
03:13 36.8 °F 20.8 °F 29.94 in NW 2.0 mph 3.0 mph 52% 0.00 in
03:18 36.5 °F 21.0 °F 29.94 in NW 2.0 mph 2.0 mph 53% 0.00 in
03:23 36.1 °F 21.1 °F 29.94 in WNW 4.0 mph 4.0 mph 54% 0.00 in
03:28 35.7 °F 21.1 °F 29.94 in WNW 3.0 mph 3.0 mph 55% 0.00 in
03:33 35.5 °F 21.4 °F 29.94 in WNW 1.0 mph 3.0 mph 56% 0.00 in
03:38 35.3 °F 21.2 °F 29.94 in WNW 1.0 mph 3.0 mph 56% 0.00 in
03:43 35.1 °F 21.4 °F 29.94 in WNW 1.0 mph 2.0 mph 57% 0.00 in
03:48 35.0 °F 21.3 °F 29.94 in West 1.0 mph 2.0 mph 57% 0.00 in
03:53 34.9 °F 21.2 °F 29.94 in Calm   1.0 mph 57% 0.00 in
03:58 35.0 °F 21.3 °F 29.94 in WNW 1.0 mph 1.0 mph 57% 0.00 in
04:04 34.9 °F 21.2 °F 29.95 in West 1.0 mph 1.0 mph 57% 0.00 in
04:09 34.8 °F 21.1 °F 29.95 in SW 1.0 mph 1.0 mph 57% 0.00 in
04:14 34.7 °F 21.0 °F 29.95 in Calm   1.0 mph 57% 0.00 in
04:19 34.4 °F 21.2 °F 29.95 in Calm   1.0 mph 58% 0.00 in
04:24 34.0 °F 20.8 °F 29.95 in Calm     58% 0.00 in
04:29 33.4 °F 21.4 °F 29.94 in Calm     61% 0.00 in
04:34 33.1 °F 22.6 °F 29.94 in Calm     65% 0.00 in
04:39 32.6 °F 21.8 °F 29.94 in Calm     64% 0.00 in
04:44 32.4 °F 21.6 °F 29.94 in Calm     64% 0.00 in
04:49 32.7 °F 23.0 °F 29.94 in WSW 1.0 mph 1.0 mph 67% 0.00 in
04:54 32.8 °F 22.7 °F 29.95 in WSW 1.0 mph 1.0 mph 66% 0.00 in
04:59 32.8 °F 23.4 °F 29.95 in WSW 1.0 mph 1.0 mph 68% 0.00 in
05:04 32.8 °F 23.1 °F 29.95 in WSW 1.0 mph 1.0 mph 67% 0.00 in
05:09 32.7 °F 23.0 °F 29.95 in Calm     67% 0.00 in
05:14 32.7 °F 23.7 °F 29.95 in Calm   1.0 mph 69% 0.00 in
05:19 32.5 °F 23.5 °F 29.95 in WSW 1.0 mph 1.0 mph 69% 0.00 in
05:24 32.7 °F 25.3 °F 29.95 in SW 1.0 mph 2.0 mph 74% 0.00 in
05:29 32.5 °F 24.8 °F 29.95 in Calm     73% 0.00 in
05:34 32.1 °F 24.4 °F 29.95 in Calm     73% 0.00 in
05:39 31.8 °F 23.8 °F 29.95 in Calm     72% 0.00 in
05:44 32.1 °F 24.8 °F 29.96 in Calm     74% 0.00 in
05:49 32.1 °F 25.1 °F 29.96 in Calm   1.0 mph 75% 0.00 in
05:54 31.7 °F 23.7 °F 29.96 in Calm     72% 0.00 in
05:59 31.6 °F 21.9 °F 29.96 in Calm     67% 0.00 in
06:04 32.0 °F 22.3 °F 29.96 in WSW 1.0 mph 1.0 mph 67% 0.00 in
06:09 32.2 °F 21.8 °F 29.96 in Calm   1.0 mph 65% 0.00 in
06:14 32.4 °F 22.0 °F 29.96 in Calm   1.0 mph 65% 0.00 in
06:19 32.2 °F 21.4 °F 29.97 in Calm     64% 0.00 in
06:24 32.0 °F 21.2 °F 29.97 in Calm     64% 0.00 in
06:30 32.3 °F 21.1 °F 29.97 in WNW 1.0 mph 1.0 mph 63% 0.00 in
06:34 32.6 °F 23.9 °F 29.97 in Calm   1.0 mph 70% 0.00 in
06:40 32.5 °F 25.5 °F 29.98 in Calm     75% 0.00 in
06:45 32.1 °F 25.7 °F 29.98 in Calm     77% 0.00 in
06:50 31.6 °F 25.2 °F 29.98 in Calm     77% 0.00 in
06:55 31.3 °F 24.9 °F 29.98 in Calm     77% 0.00 in
07:00 31.1 °F 24.4 °F 29.98 in Calm     76% 0.00 in
07:05 30.9 °F 24.5 °F 29.98 in Calm     77% 0.00 in
07:10 30.7 °F 23.4 °F 29.98 in Calm     74% 0.00 in
07:15 31.0 °F 25.3 °F 29.99 in Calm     79% 0.00 in
07:20 31.2 °F 25.5 °F 29.99 in Calm     79% 0.00 in
07:25 31.2 °F 24.2 °F 30.00 in Calm     75% 0.00 in
07:30 31.6 °F 23.3 °F 30.00 in Calm   1.0 mph 71% 0.00 in
07:35 31.9 °F 22.9 °F 30.00 in WNW 1.0 mph 2.0 mph 69% 0.00 in
07:40 32.3 °F 22.9 °F 30.01 in NW 2.0 mph 3.0 mph 68% 0.00 in
07:45 32.8 °F 23.4 °F 30.01 in NW 1.0 mph 2.0 mph 68% 0.00 in
07:50 33.0 °F 23.6 °F 30.01 in NW 2.0 mph 2.0 mph 68% 0.00 in
07:55 33.1 °F 24.0 °F 30.02 in WNW 2.0 mph 3.0 mph 69% 0.00 in
08:00 33.6 °F 23.5 °F 30.02 in NW 3.0 mph 4.0 mph 66% 0.00 in
08:05 34.1 °F 24.0 °F 30.02 in West 2.0 mph 3.0 mph 66% 0.00 in
08:10 34.5 °F 24.3 °F 30.02 in WSW 1.0 mph 2.0 mph 66% 0.00 in
08:15 35.2 °F 25.4 °F 30.03 in WSW 2.0 mph 4.0 mph 67% 0.00 in
08:20 35.9 °F 26.0 °F 30.03 in West 3.0 mph 5.0 mph 67% 0.00 in
08:25 36.6 °F 26.3 °F 30.03 in West 2.0 mph 6.0 mph 66% 0.00 in
08:30 37.1 °F 26.1 °F 30.03 in WSW 6.0 mph 8.0 mph 64% 0.00 in
08:35 37.3 °F 26.3 °F 30.03 in WNW 2.0 mph 5.0 mph 64% 0.00 in
08:36 37.4 °F 26.4 °F 30.03 in WSW 3.0 mph 5.0 mph 64% 0.00 in
08:41 37.5 °F 26.5 °F 30.03 in WNW 4.0 mph 4.0 mph 64% 0.00 in
08:46 37.8 °F 26.7 °F 30.04 in WNW 3.0 mph 9.0 mph 64% 0.00 in
08:51 38.0 °F 26.5 °F 30.04 in West 5.0 mph 7.0 mph 63% 0.00 in
08:56 38.1 °F 26.6 °F 30.04 in SW 4.0 mph 8.0 mph 63% 0.00 in
09:01 38.5 °F 27.0 °F 30.04 in WNW 6.0 mph 7.0 mph 63% 0.00 in
09:06 39.1 °F 27.6 °F 30.03 in WSW 5.0 mph 7.0 mph 63% 0.00 in
09:11 39.1 °F 26.4 °F 30.03 in WSW 4.0 mph 8.0 mph 60% 0.00 in
09:16 39.6 °F 27.7 °F 30.04 in WSW 5.0 mph 8.0 mph 62% 0.00 in
09:21 39.8 °F 27.9 °F 30.04 in WSW 4.0 mph 6.0 mph 62% 0.00 in
09:26 40.3 °F 28.3 °F 30.04 in West 5.0 mph 9.0 mph 62% 0.00 in
09:31 40.5 °F 28.1 °F 30.04 in WSW 2.0 mph 8.0 mph 61% 0.00 in
09:37 41.4 °F 28.6 °F 30.04 in SW 2.0 mph 7.0 mph 60% 0.00 in
09:42 41.9 °F 27.4 °F 30.04 in WSW 11.0 mph 11.0 mph 56% 0.00 in
09:47 42.6 °F 27.1 °F 30.04 in WNW 6.0 mph 9.0 mph 54% 0.00 in
09:52 43.2 °F 28.6 °F 30.04 in SW 9.0 mph 9.0 mph 56% 0.00 in
09:57 43.7 °F 28.6 °F 30.04 in West 4.0 mph 10.0 mph 55% 0.00 in
10:02 44.2 °F 28.2 °F 30.03 in WSW 7.0 mph 9.0 mph 53% 0.00 in
10:07 45.0 °F 28.9 °F 30.04 in West 8.0 mph 9.0 mph 53% 0.00 in
10:12 45.2 °F 27.7 °F 30.04 in West 4.0 mph 12.0 mph 50% 0.00 in
10:17 45.5 °F 26.5 °F 30.04 in WSW 4.0 mph 7.0 mph 47% 0.00 in
10:22 45.7 °F 26.1 °F 30.04 in West 9.0 mph 12.0 mph 46% 0.00 in
10:27 45.6 °F 25.0 °F 30.04 in WSW 6.0 mph 14.0 mph 44% 0.00 in
10:32 46.0 °F 24.8 °F 30.04 in WSW 8.0 mph 14.0 mph 43% 0.00 in
10:37 46.0 °F 23.6 °F 30.04 in NW 7.0 mph 12.0 mph 41% 0.00 in
10:42 46.3 °F 25.6 °F 30.04 in NW 9.0 mph 13.0 mph 44% 0.00 in
10:47 46.9 °F 25.6 °F 30.04 in West 3.0 mph 11.0 mph 43% 0.00 in
10:52 47.3 °F 26.0 °F 30.04 in WSW 7.0 mph 14.0 mph 43% 0.00 in
10:57 47.4 °F 28.2 °F 30.04 in WSW 6.0 mph 9.0 mph 47% 0.00 in
11:02 46.8 °F 25.5 °F 30.04 in WSW 9.0 mph 14.0 mph 43% 0.00 in
11:07 47.5 °F 26.1 °F 30.04 in WNW 8.0 mph 14.0 mph 43% 0.00 in
11:12 47.3 °F 26.0 °F 30.04 in WSW 9.0 mph 13.0 mph 43% 0.00 in
11:17 47.6 °F 29.4 °F 30.04 in WSW 6.0 mph 8.0 mph 49% 0.00 in
11:22 48.3 °F 27.4 °F 30.04 in WNW 11.0 mph 11.0 mph 44% 0.00 in
11:27 48.1 °F 24.3 °F 30.04 in NW 7.0 mph 23.0 mph 39% 0.00 in
11:33 47.9 °F 25.9 °F 30.04 in SW 6.0 mph 9.0 mph 42% 0.00 in
11:38 48.2 °F 26.8 °F 30.03 in WSW 5.0 mph 11.0 mph 43% 0.00 in
11:43 48.3 °F 26.3 °F 30.03 in SSW 10.0 mph 16.0 mph 42% 0.00 in
11:48 48.4 °F 27.0 °F 30.03 in WSW 8.0 mph 16.0 mph 43% 0.00 in
11:53 48.3 °F 26.3 °F 30.03 in WNW 11.0 mph 14.0 mph 42% 0.00 in
11:58 47.8 °F 26.4 °F 30.04 in WSW 9.0 mph 13.0 mph 43% 0.00 in
12:03 47.7 °F 25.8 °F 30.03 in SW 12.0 mph 16.0 mph 42% 0.00 in
12:08 47.6 °F 25.1 °F 30.03 in WSW 10.0 mph 12.0 mph 41% 0.00 in
12:13 47.3 °F 24.8 °F 30.03 in West 11.0 mph 20.0 mph 41% 0.00 in
12:18 47.6 °F 25.7 °F 30.03 in SW 9.0 mph 13.0 mph 42% 0.00 in
12:23 48.1 °F 24.9 °F 30.03 in WSW 8.0 mph 16.0 mph 40% 0.00 in
12:28 47.7 °F 25.2 °F 30.03 in WSW 5.0 mph 15.0 mph 41% 0.00 in
12:33 48.1 °F 24.9 °F 30.03 in West 8.0 mph 17.0 mph 40% 0.00 in
12:38 48.2 °F 25.0 °F 30.03 in West 14.0 mph 18.0 mph 40% 0.00 in
12:43 48.5 °F 25.9 °F 30.03 in West 11.0 mph 11.0 mph 41% 0.00 in
12:48 49.2 °F 25.3 °F 30.03 in WSW 13.0 mph 15.0 mph 39% 0.00 in
12:53 49.2 °F 24.7 °F 30.03 in WSW 10.0 mph 14.0 mph 38% 0.00 in
12:58 49.6 °F 25.7 °F 30.03 in West 5.0 mph 10.0 mph 39% 0.00 in
13:03 49.2 °F 24.1 °F 30.03 in WSW 7.0 mph 13.0 mph 37% 0.00 in
13:08 50.0 °F 25.4 °F 30.03 in WSW 11.0 mph 12.0 mph 38% 0.00 in
13:13 49.6 °F 23.1 °F 30.02 in West 9.0 mph 12.0 mph 35% 0.00 in
13:18 49.6 °F 23.1 °F 30.03 in West 9.0 mph 22.0 mph 35% 0.00 in
13:23 50.8 °F 24.1 °F 30.02 in WNW 14.0 mph 18.0 mph 35% 0.00 in
13:28 50.0 °F 22.0 °F 30.02 in WNW 14.0 mph 19.0 mph 33% 0.00 in
13:33 49.5 °F 23.0 °F 30.02 in West 10.0 mph 14.0 mph 35% 0.00 in
13:38 50.3 °F 23.7 °F 30.02 in West 13.0 mph 15.0 mph 35% 0.00 in
13:43 50.8 °F 22.8 °F 30.01 in West 19.0 mph 19.0 mph 33% 0.00 in
13:48 50.3 °F 23.7 °F 30.01 in WNW 14.0 mph 18.0 mph 35% 0.00 in
13:53 51.6 °F 26.2 °F 30.01 in West 7.0 mph 14.0 mph 37% 0.00 in
13:58 51.6 °F 24.9 °F 30.00 in West 6.0 mph 17.0 mph 35% 0.00 in
14:03 51.3 °F 23.2 °F 30.00 in WSW 10.0 mph 17.0 mph 33% 0.00 in
14:08 51.0 °F 22.9 °F 30.00 in WSW 6.0 mph 24.0 mph 33% 0.00 in
14:13 51.4 °F 23.3 °F 30.00 in WNW 9.0 mph 16.0 mph 33% 0.00 in
14:18 52.4 °F 24.2 °F 30.00 in West 10.0 mph 17.0 mph 33% 0.00 in
14:23 51.8 °F 22.1 °F 29.99 in WSW 10.0 mph 16.0 mph 31% 0.00 in
14:29 51.4 °F 22.5 °F 29.99 in WNW 19.0 mph 19.0 mph 32% 0.00 in
14:34 50.9 °F 22.1 °F 29.99 in WNW 13.0 mph 17.0 mph 32% 0.00 in
14:39 51.1 °F 23.7 °F 30.00 in West 7.0 mph 15.0 mph 34% 0.00 in
14:44 51.3 °F 21.7 °F 30.00 in WNW 13.0 mph 14.0 mph 31% 0.00 in
14:49 51.2 °F 23.1 °F 30.00 in West 16.0 mph 16.0 mph 33% 0.00 in
14:54 51.8 °F 24.3 °F 29.99 in WSW 12.0 mph 20.0 mph 34% 0.00 in
14:59 52.1 °F 23.2 °F 29.99 in West 8.0 mph 15.0 mph 32% 0.00 in
15:04 52.0 °F 24.5 °F 29.99 in West 15.0 mph 15.0 mph 34% 0.00 in
15:09 51.7 °F 22.8 °F 29.99 in WNW 12.0 mph 16.0 mph 32% 0.00 in
15:14 51.9 °F 23.7 °F 29.99 in SW 12.0 mph 15.0 mph 33% 0.00 in
15:19 52.4 °F 24.2 °F 29.99 in WSW 6.0 mph 15.0 mph 33% 0.00 in
15:24 52.3 °F 21.8 °F 29.99 in WNW 9.0 mph 16.0 mph 30% 0.00 in
15:29 52.5 °F 21.2 °F 29.99 in WSW 14.0 mph 15.0 mph 29% 0.00 in
15:34 53.1 °F 23.3 °F 29.98 in WNW 6.0 mph 11.0 mph 31% 0.00 in
15:39 53.3 °F 23.5 °F 29.98 in WNW 8.0 mph 15.0 mph 31% 0.00 in
15:44 53.4 °F 22.8 °F 29.98 in SW 13.0 mph 18.0 mph 30% 0.00 in
15:49 53.9 °F 23.2 °F 29.98 in WNW 4.0 mph 10.0 mph 30% 0.00 in
15:54 53.7 °F 23.0 °F 29.98 in WSW 8.0 mph 9.0 mph 30% 0.00 in
15:59 53.2 °F 22.6 °F 29.98 in SW 9.0 mph 17.0 mph 30% 0.00 in
16:04 53.1 °F 24.0 °F 29.98 in WSW 8.0 mph 15.0 mph 32% 0.00 in
16:09 53.7 °F 23.8 °F 29.98 in West 6.0 mph 12.0 mph 31% 0.00 in
16:14 53.9 °F 24.0 °F 29.98 in WSW 6.0 mph 12.0 mph 31% 0.00 in
16:19 53.8 °F 23.1 °F 29.98 in SW 6.0 mph 17.0 mph 30% 0.00 in
16:24 53.7 °F 23.8 °F 29.98 in WNW 10.0 mph 13.0 mph 31% 0.00 in
16:29 53.7 °F 22.2 °F 29.98 in WSW 8.0 mph 13.0 mph 29% 0.00 in
16:34 54.1 °F 23.4 °F 29.98 in WSW 7.0 mph 12.0 mph 30% 0.00 in
16:39 54.5 °F 23.7 °F 29.97 in WNW 7.0 mph 15.0 mph 30% 0.00 in
16:44 54.2 °F 22.6 °F 29.97 in WSW 11.0 mph 13.0 mph 29% 0.00 in
16:49 54.0 °F 22.5 °F 29.97 in SW 11.0 mph 11.0 mph 29% 0.00 in
16:54 53.6 °F 23.7 °F 29.97 in West 8.0 mph 13.0 mph 31% 0.00 in
16:59 53.4 °F 22.8 °F 29.97 in WSW 6.0 mph 14.0 mph 30% 0.00 in
17:04 53.0 °F 23.2 °F 29.98 in West 9.0 mph 15.0 mph 31% 0.00 in
17:09 53.2 °F 23.4 °F 29.98 in WSW 9.0 mph 12.0 mph 31% 0.00 in
17:14 53.8 °F 23.9 °F 29.97 in WSW 7.0 mph 10.0 mph 31% 0.00 in
17:19 54.0 °F 23.3 °F 29.97 in West 9.0 mph 10.0 mph 30% 0.00 in
17:24 53.9 °F 24.0 °F 29.97 in WSW 10.0 mph 13.0 mph 31% 0.00 in
17:29 53.9 °F 24.0 °F 29.97 in West 4.0 mph 12.0 mph 31% 0.00 in
17:35 54.0 °F 24.8 °F 29.97 in WNW 4.0 mph 13.0 mph 32% 0.00 in
17:40 53.7 °F 23.8 °F 29.97 in West 6.0 mph 9.0 mph 31% 0.00 in
17:45 53.2 °F 23.4 °F 29.97 in WSW 7.0 mph 12.0 mph 31% 0.00 in
17:50 52.9 °F 23.9 °F 29.97 in WSW 9.0 mph 9.0 mph 32% 0.00 in
17:55 52.9 °F 24.6 °F 29.97 in WSW 3.0 mph 10.0 mph 33% 0.00 in
18:00 53.6 °F 25.9 °F 29.97 in WSW 5.0 mph 9.0 mph 34% 0.00 in
18:05 53.9 °F 24.7 °F 29.97 in SW 8.0 mph 10.0 mph 32% 0.00 in
18:10 53.8 °F 24.6 °F 29.97 in WSW 4.0 mph 8.0 mph 32% 0.00 in
18:15 53.6 °F 23.7 °F 29.97 in West 3.0 mph 9.0 mph 31% 0.00 in
18:20 53.1 °F 24.8 °F 29.98 in West 2.0 mph 8.0 mph 33% 0.00 in
18:25 52.9 °F 25.3 °F 29.98 in WSW 4.0 mph 7.0 mph 34% 0.00 in
18:30 52.6 °F 25.0 °F 29.98 in SW 3.0 mph 4.0 mph 34% 0.00 in
18:35 52.3 °F 25.5 °F 29.98 in WSW 1.0 mph 2.0 mph 35% 0.00 in
18:40 52.0 °F 25.2 °F 29.98 in WSW 1.0 mph 3.0 mph 35% 0.00 in
18:45 51.6 °F 24.9 °F 29.98 in WSW 2.0 mph 2.0 mph 35% 0.00 in
18:47 51.5 °F 24.8 °F 29.98 in WSW 1.0 mph 2.0 mph 35% 0.00 in
18:52 51.1 °F 25.1 °F 29.98 in SW 2.0 mph 2.0 mph 36% 0.00 in
18:57 50.7 °F 26.0 °F 29.98 in SW 1.0 mph 2.0 mph 38% 0.00 in
19:02 50.3 °F 25.7 °F 29.98 in Calm   1.0 mph 38% 0.00 in
19:07 50.1 °F 25.5 °F 29.98 in SSW 1.0 mph 2.0 mph 38% 0.00 in
19:12 50.0 °F 26.6 °F 29.98 in South 2.0 mph 2.0 mph 40% 0.00 in
19:17 50.1 °F 25.5 °F 29.98 in South 2.0 mph 3.0 mph 38% 0.00 in
19:22 50.2 °F 26.2 °F 29.98 in SSW 1.0 mph 2.0 mph 39% 0.00 in
19:27 50.2 °F 25.0 °F 29.97 in SSW 1.0 mph 2.0 mph 37% 0.00 in
19:33 50.3 °F 26.3 °F 29.97 in South 2.0 mph 3.0 mph 39% 0.00 in
19:38 50.4 °F 25.8 °F 29.97 in SSE 3.0 mph 3.0 mph 38% 0.00 in
19:43 50.3 °F 26.3 °F 29.98 in SSE 2.0 mph 3.0 mph 39% 0.00 in
19:48 50.1 °F 26.7 °F 29.98 in SSE 1.0 mph 4.0 mph 40% 0.00 in
19:53 50.0 °F 26.6 °F 29.98 in South 3.0 mph 3.0 mph 40% 0.00 in
19:58 49.9 °F 26.6 °F 29.98 in South 3.0 mph 4.0 mph 40% 0.00 in
20:03 49.9 °F 26.6 °F 29.98 in South 2.0 mph 3.0 mph 40% 0.00 in
20:08 49.8 °F 27.1 °F 29.98 in South 1.0 mph 2.0 mph 41% 0.00 in
20:13 49.8 °F 27.1 °F 29.98 in SSE 1.0 mph 2.0 mph 41% 0.00 in
20:18 49.7 °F 27.0 °F 29.98 in SSE 3.0 mph 3.0 mph 41% 0.00 in
20:23 49.7 °F 27.0 °F 29.98 in South 3.0 mph 3.0 mph 41% 0.00 in
20:28 49.5 °F 28.0 °F 29.98 in South 3.0 mph 3.0 mph 43% 0.00 in
20:33 49.4 °F 27.9 °F 29.97 in SSW 4.0 mph 5.0 mph 43% 0.00 in
20:38 49.3 °F 27.8 °F 29.97 in SE 3.0 mph 4.0 mph 43% 0.00 in
20:43 49.1 °F 27.6 °F 29.97 in SSE 4.0 mph 5.0 mph 43% 0.00 in
20:48 49.0 °F 27.5 °F 29.97 in SSE 4.0 mph 5.0 mph 43% 0.00 in
20:53 48.8 °F 27.3 °F 29.97 in South 5.0 mph 6.0 mph 43% 0.00 in
20:58 48.7 °F 27.2 °F 29.97 in SSW 4.0 mph 5.0 mph 43% 0.00 in
21:03 48.4 °F 27.5 °F 29.96 in SSE 3.0 mph 7.0 mph 44% 0.00 in
21:08 48.3 °F 27.4 °F 29.96 in South 4.0 mph 5.0 mph 44% 0.00 in
21:13 48.2 °F 27.3 °F 29.96 in SE 5.0 mph 7.0 mph 44% 0.00 in
21:18 48.3 °F 27.4 °F 29.95 in South 4.0 mph 10.0 mph 44% 0.00 in
21:23 48.4 °F 27.0 °F 29.96 in SSW 4.0 mph 9.0 mph 43% 0.00 in
21:28 48.4 °F 27.5 °F 29.96 in SW 4.0 mph 10.0 mph 44% 0.00 in
21:33 48.5 °F 27.6 °F 29.96 in SSW 7.0 mph 9.0 mph 44% 0.00 in
21:38 48.4 °F 28.0 °F 29.96 in South 11.0 mph 11.0 mph 45% 0.00 in
21:43 48.5 °F 28.1 °F 29.96 in SSE 6.0 mph 8.0 mph 45% 0.00 in
21:48 48.7 °F 27.8 °F 29.96 in SSW 7.0 mph 8.0 mph 44% 0.00 in
21:53 49.0 °F 28.0 °F 29.96 in South 3.0 mph 9.0 mph 44% 0.00 in
21:58 49.3 °F 28.3 °F 29.96 in South 4.0 mph 10.0 mph 44% 0.00 in
22:03 49.3 °F 27.8 °F 29.96 in South 7.0 mph 9.0 mph 43% 0.00 in
22:08 49.4 °F 28.4 °F 29.96 in South 4.0 mph 9.0 mph 44% 0.00 in
22:13 49.5 °F 28.0 °F 29.96 in SSE 3.0 mph 12.0 mph 43% 0.00 in
22:18 49.4 °F 27.9 °F 29.95 in South 9.0 mph 12.0 mph 43% 0.00 in
22:23 49.3 °F 28.3 °F 29.95 in SSW 4.0 mph 11.0 mph 44% 0.00 in
22:28 49.2 °F 28.2 °F 29.95 in SW 4.0 mph 11.0 mph 44% 0.00 in
22:34 49.1 °F 28.1 °F 29.95 in South 7.0 mph 9.0 mph 44% 0.00 in
22:39 49.2 °F 28.8 °F 29.95 in SW 8.0 mph 10.0 mph 45% 0.00 in
22:44 49.3 °F 28.3 °F 29.95 in South 7.0 mph 10.0 mph 44% 0.00 in
22:49 49.4 °F 28.4 °F 29.94 in South 6.0 mph 9.0 mph 44% 0.00 in
22:54 49.4 °F 29.0 °F 29.94 in SSW 8.0 mph 8.0 mph 45% 0.00 in
22:59 49.3 °F 28.9 °F 29.94 in South 7.0 mph 13.0 mph 45% 0.00 in
23:04 49.2 °F 28.8 °F 29.94 in SSW 4.0 mph 11.0 mph 45% 0.00 in
23:09 49.1 °F 29.2 °F 29.94 in SW 6.0 mph 9.0 mph 46% 0.00 in
23:14 49.2 °F 28.8 °F 29.94 in SW 8.0 mph 11.0 mph 45% 0.00 in
23:19 49.1 °F 28.7 °F 29.94 in SSW 7.0 mph 11.0 mph 45% 0.00 in
23:24 49.2 °F 28.8 °F 29.94 in WSW 7.0 mph 12.0 mph 45% 0.00 in
23:29 49.1 °F 28.7 °F 29.93 in SSW 5.0 mph 10.0 mph 45% 0.00 in
23:34 49.2 °F 28.8 °F 29.93 in SSW 6.0 mph 11.0 mph 45% 0.00 in
23:39 49.6 °F 28.6 °F 29.93 in SSW 8.0 mph 15.0 mph 44% 0.00 in
23:40 49.6 °F 28.6 °F 29.92 in SW 10.0 mph 15.0 mph 44% 0.00 in
23:45 50.0 °F 28.4 °F 29.92 in SW 9.0 mph 20.0 mph 43% 0.00 in
23:50 50.6 °F 28.4 °F 29.93 in SW 11.0 mph 15.0 mph 42% 0.00 in
23:55 51.2 °F 28.9 °F 29.93 in SW 11.0 mph 16.0 mph 42% 0.00 in
Compliments of Weather Underground